Time;durP1;ratioP1;P1;durP2;ratioP2;P2;SDS_P1;SDS_P2;PMS_P1;PMS_P2;Temp;Humidity;BMP_temperature;BMP_pressure;BME280_temperature;BME280_humidity;BME280_pressure;Samples;Min_cycle;Max_cycle;Signal;HPM_P1;HPM_P2
2022/01/03 00:01:15;;;;;;;4.00;0.80;;;;;;;7.13;100.00;100622.59;5066171;28;20036;-75
2022/01/03 00:03:40;;;;;;;4.43;0.60;;;;;;;7.03;100.00;100615.63;5048022;28;20021;-75
2022/01/03 00:06:06;;;;;;;3.70;0.40;;;;;;;7.08;100.00;100635.28;5067470;28;20017;-75
2022/01/03 00:08:32;;;;;;;5.82;0.38;;;;;;;7.12;100.00;100635.84;5065524;28;20523;-75
2022/01/03 00:10:58;;;;;;;2.15;0.55;;;;;;;7.10;100.00;100632.50;5066483;28;20495;-75
2022/01/03 00:13:24;;;;;;;5.25;1.27;;;;;;;7.11;100.00;100636.81;5046414;28;20036;-75
2022/01/03 00:15:50;;;;;;;5.07;0.65;;;;;;;7.00;100.00;100622.81;5063753;28;20021;-75
2022/01/03 00:18:16;;;;;;;1.55;0.82;;;;;;;7.07;100.00;100628.34;5035052;28;20031;-75
2022/01/03 00:20:52;;;;;;;4.40;1.05;;;;;;;7.02;100.00;100619.25;5066352;28;20393;-75
2022/01/03 00:23:22;;;;;;;4.82;1.33;;;;;;;7.13;100.00;100632.25;5066174;28;20860;-75
2022/01/03 00:25:52;;;;;;;10.00;1.15;;;;;;;7.19;100.00;100642.22;5066886;28;20391;-75
2022/01/03 00:28:31;;;;;;;1.85;0.85;;;;;;;7.17;100.00;100629.22;5061052;28;20025;-75
2022/01/03 00:30:57;;;;;;;3.35;0.75;;;;;;;7.18;100.00;100628.25;5058011;28;20028;-75
2022/01/03 00:33:24;;;;;;;6.68;0.90;;;;;;;7.30;100.00;100638.69;5068510;28;20588;-75
2022/01/03 00:35:58;;;;;;;4.28;1.08;;;;;;;7.19;100.00;100634.34;5044960;28;20051;-75
2022/01/03 00:38:26;;;;;;;4.63;1.10;;;;;;;7.33;100.00;100654.16;5062016;28;20025;-76
2022/01/03 00:40:52;;;;;;;5.47;1.48;;;;;;;7.17;100.00;100623.97;5060841;28;20037;-75
2022/01/03 00:43:18;;;;;;;9.90;1.13;;;;;;;7.25;100.00;100631.22;5045521;28;20503;-75
2022/01/03 00:45:43;;;;;;;4.15;1.20;;;;;;;7.43;100.00;100652.38;5061453;28;20445;-75
2022/01/03 00:48:10;;;;;;;3.63;1.27;;;;;;;7.47;100.00;100648.53;5065497;28;20037;-75
2022/01/03 00:50:37;;;;;;;8.60;1.73;;;;;;;7.52;100.00;100653.38;5041088;28;20408;-75
2022/01/03 00:53:03;;;;;;;9.75;1.92;;;;;;;7.54;100.00;100647.03;5010017;28;1084174;-75
2022/01/03 00:55:29;;;;;;;7.70;1.42;;;;;;;7.49;100.00;100648.38;5067716;28;20033;-75
2022/01/03 00:58:08;;;;;;;7.05;2.85;;;;;;;7.54;100.00;100639.16;5049894;28;20036;-75
2022/01/03 01:00:37;;;;;;;7.90;1.40;;;;;;;7.47;100.00;100621.41;5044709;28;20033;-75
2022/01/03 01:03:12;;;;;;;6.10;1.73;;;;;;;7.62;100.00;100648.94;5063391;28;20404;-76
2022/01/03 01:05:45;;;;;;;8.23;1.30;;;;;;;7.65;100.00;100643.44;5060668;28;20028;-75
2022/01/03 01:08:10;;;;;;;7.63;1.55;;;;;;;7.55;100.00;100632.09;5063430;28;20102;-75
2022/01/03 01:10:39;;;;;;;8.25;2.60;;;;;;;7.69;100.00;100657.97;5063580;28;20370;-75
2022/01/03 01:13:09;;;;;;;12.27;2.13;;;;;;;7.68;100.00;100651.03;5042886;28;20381;-75
2022/01/03 01:15:35;;;;;;;11.50;1.65;;;;;;;7.68;100.00;100658.09;5050529;28;20611;-75
2022/01/03 01:18:04;;;;;;;12.68;2.58;;;;;;;7.71;100.00;100660.44;5065658;28;20476;-75
2022/01/03 01:20:30;;;;;;;6.47;1.20;;;;;;;7.72;100.00;100668.19;5062413;28;20036;-75
2022/01/03 01:22:56;;;;;;;6.32;1.50;;;;;;;7.69;100.00;100665.84;5065198;28;20130;-75
2022/01/03 01:28:03;;;;;;;6.88;1.02;;;;;;;7.68;100.00;100663.34;5061743;28;20481;-75
2022/01/03 01:30:29;;;;;;;9.18;1.83;;;;;;;7.67;100.00;100649.41;5069014;28;20016;-75
2022/01/03 01:33:01;;;;;;;17.25;2.30;;;;;;;7.66;100.00;100668.72;5063857;28;20516;-75
2022/01/03 01:35:41;;;;;;;12.40;1.45;;;;;;;7.72;100.00;100668.19;5059209;28;20025;-75
2022/01/03 01:38:09;;;;;;;9.02;1.90;;;;;;;7.72;100.00;100664.75;5060722;28;20048;-75
2022/01/03 01:40:43;;;;;;;9.75;1.75;;;;;;;7.75;100.00;100672.34;5030458;28;20031;-75
2022/01/03 01:43:12;;;;;;;10.20;2.10;;;;;;;7.72;100.00;100662.94;5068023;28;20029;-75
2022/01/03 01:45:41;;;;;;;5.15;1.17;;;;;;;7.79;100.00;100677.19;5048275;28;20030;-75
2022/01/03 01:48:11;;;;;;;10.23;2.22;;;;;;;7.79;100.00;100677.19;5065419;28;20048;-75
2022/01/03 01:50:40;;;;;;;17.95;3.50;;;;;;;7.80;100.00;100678.03;5067267;28;20009;-75
2022/01/03 01:53:06;;;;;;;13.18;1.63;;;;;;;7.81;100.00;100683.13;5062700;28;20055;-75
2022/01/03 01:55:32;;;;;;;18.65;1.95;;;;;;;7.65;100.00;100653.97;5046148;28;20554;-75
2022/01/03 01:58:04;;;;;;;9.45;2.03;;;;;;;7.78;100.00;100688.69;5052050;28;20168;-75
2022/01/03 02:00:33;;;;;;;16.20;2.58;;;;;;;7.70;100.00;100683.25;5063342;28;20036;-76
2022/01/03 02:03:14;;;;;;;14.55;1.85;;;;;;;7.66;100.00;100681.88;5065131;28;20040;-75
2022/01/03 02:05:41;;;;;;;;;;;;;;;7.68;100.00;100679.13;5064172;28;20024;-75
2022/01/03 02:08:24;;;;;;;11.82;2.38;;;;;;;7.72;100.00;100686.59;5064413;28;19924;-75
2022/01/03 02:11:01;;;;;;;15.63;2.53;;;;;;;7.71;100.00;100679.69;5038364;28;20078;-75
2022/01/03 02:13:27;;;;;;;11.65;1.40;;;;;;;7.74;100.00;100684.66;5040752;28;20040;-75
2022/01/03 02:16:03;;;;;;;11.45;1.77;;;;;;;7.75;100.00;100680.22;5041701;28;20036;-75
2022/01/03 02:18:29;;;;;;;14.13;3.70;;;;;;;7.78;100.00;100686.06;5038009;28;20037;-75
2022/01/03 02:20:55;;;;;;;13.93;1.60;;;;;;;7.81;100.00;100688.41;5042710;28;20043;-75
2022/01/03 02:23:20;;;;;;;12.48;2.03;;;;;;;7.79;100.00;100679.81;5060044;28;20028;-75
2022/01/03 02:25:46;;;;;;;12.45;1.50;;;;;;;7.86;100.00;100690.63;5046894;28;20043;-75
2022/01/03 02:28:11;;;;;;;9.65;2.00;;;;;;;7.64;100.00;100649.66;5058512;28;20032;-75
2022/01/03 02:30:37;;;;;;;12.15;2.05;;;;;;;7.90;100.00;100685.91;5061446;28;20040;-75
2022/01/03 02:33:03;;;;;;;15.80;2.55;;;;;;;7.80;100.00;100676.25;5059925;28;20031;-75
2022/01/03 02:35:29;;;;;;;16.95;2.78;;;;;;;7.77;100.00;100657.28;5063611;28;20361;-75
2022/01/03 02:37:55;;;;;;;14.27;2.17;;;;;;;7.81;100.00;100669.19;5055938;28;20122;-75
2022/01/03 02:40:21;;;;;;;14.25;1.55;;;;;;;7.98;100.00;100691.34;5046105;28;20036;-75
2022/01/03 02:42:49;;;;;;;11.43;1.80;;;;;;;8.00;100.00;100689.41;5046364;28;20032;-75
2022/01/03 02:45:18;;;;;;;12.38;1.92;;;;;;;7.98;100.00;100688.69;5064376;28;20032;-75
2022/01/03 02:47:46;;;;;;;8.43;2.05;;;;;;;7.85;100.00;100667.13;5063845;28;20039;-75
2022/01/03 02:50:13;;;;;;;16.30;3.25;;;;;;;7.99;100.00;100687.72;5064229;28;20268;-75
2022/01/03 02:52:39;;;;;;;10.82;2.70;;;;;;;8.03;100.00;100683.84;5046850;28;20056;-75
2022/01/03 02:55:06;;;;;;;8.02;1.88;;;;;;;8.04;100.00;100688.16;5041296;28;20581;-75
2022/01/03 02:57:36;;;;;;;25.65;2.22;;;;;;;8.03;100.00;100683.84;5063692;28;20077;-75
2022/01/03 03:00:04;;;;;;;14.05;1.85;;;;;;;8.03;100.00;100678.59;5061906;28;20463;-75
2022/01/03 03:02:29;;;;;;;12.77;2.50;;;;;;;8.00;100.00;100677.09;5044826;28;20032;-75
2022/01/03 03:04:57;;;;;;;11.52;1.65;;;;;;;8.01;100.00;100683.16;5041552;28;20029;-75
2022/01/03 03:07:25;;;;;;;12.75;2.28;;;;;;;7.81;100.00;100654.25;5046163;28;20016;-75
2022/01/03 03:09:50;;;;;;;12.10;1.65;;;;;;;7.95;100.00;100673.22;5034720;28;20014;-75
2022/01/03 03:12:16;;;;;;;10.93;2.42;;;;;;;7.96;100.00;100677.50;5064619;28;20432;-75
2022/01/03 03:14:42;;;;;;;11.95;3.38;;;;;;;7.83;100.00;100665.44;5065221;28;20025;-75
2022/01/03 03:17:08;;;;;;;12.23;1.80;;;;;;;7.93;100.00;100690.94;5045078;28;20028;-75
2022/01/03 03:19:52;;;;;;;18.77;2.60;;;;;;;7.82;100.00;100665.59;5063821;28;20400;-75
2022/01/03 03:22:18;;;;;;;12.95;1.90;;;;;;;7.91;100.00;100682.34;5043793;28;20021;-75
2022/01/03 03:24:43;;;;;;;12.43;2.28;;;;;;;7.91;100.00;100680.53;5064423;28;20052;-75
2022/01/03 03:27:10;;;;;;;9.48;2.63;;;;;;;7.91;100.00;100684.97;5063340;28;20043;-75
2022/01/03 03:29:35;;;;;;;8.52;1.88;;;;;;;7.86;100.00;100693.25;5048618;28;20081;-75
2022/01/03 03:32:01;;;;;;;12.70;2.17;;;;;;;7.76;100.00;100672.22;5062046;28;20032;-75
2022/01/03 03:34:27;;;;;;;12.65;2.33;;;;;;;7.72;100.00;100686.59;5046227;28;20065;-75
2022/01/03 03:36:52;;;;;;;16.25;2.90;;;;;;;7.68;100.00;100674.69;5044386;28;20058;-75
2022/01/03 03:39:18;;;;;;;18.58;3.13;;;;;;;7.72;100.00;100691.84;5043168;28;20036;-75
2022/01/03 03:41:43;;;;;;;9.02;2.00;;;;;;;7.66;100.00;100691.56;5066330;28;20377;-75
2022/01/03 03:44:10;;;;;;;13.40;2.08;;;;;;;7.50;100.00;100671.88;5045449;28;20116;-75
2022/01/03 03:46:35;;;;;;;15.93;2.90;;;;;;;7.58;100.00;100685.19;5064171;28;20452;-75
2022/01/03 03:49:00;;;;;;;11.07;2.33;;;;;;;7.49;100.00;100679.88;5050795;28;20044;-75
2022/01/03 03:51:27;;;;;;;19.98;3.60;;;;;;;7.50;100.00;100697.31;5048066;28;20048;-75
2022/01/03 03:53:53;;;;;;;12.50;2.38;;;;;;;7.36;100.00;100680.13;5066339;28;20071;-75
2022/01/03 03:56:18;;;;;;;14.20;2.22;;;;;;;7.28;100.00;100658.97;5067492;28;20068;-76
2022/01/03 03:58:44;;;;;;;18.70;2.65;;;;;;;7.40;100.00;100687.63;5034658;28;20037;-75
2022/01/03 04:01:09;;;;;;;14.30;2.63;;;;;;;7.17;100.00;100652.03;5062870;28;20032;-75
2022/01/03 04:03:34;;;;;;;12.20;2.78;;;;;;;7.31;100.00;100685.78;5049601;28;20036;-75
2022/01/03 04:06:00;;;;;;;10.05;2.08;;;;;;;7.23;100.00;100675.13;5046777;28;20067;-75
2022/01/03 04:08:25;;;;;;;16.75;2.50;;;;;;;7.27;100.00;100679.13;5047314;28;20416;-75
2022/01/03 04:10:51;;;;;;;13.30;1.90;;;;;;;7.09;100.00;100650.06;5069536;28;20410;-75
2022/01/03 04:13:16;;;;;;;16.55;2.75;;;;;;;7.22;100.00;100673.44;5046968;28;20036;-75
2022/01/03 04:15:41;;;;;;;16.42;2.70;;;;;;;7.22;100.00;100678.69;5046757;28;20037;-75
2022/01/03 04:18:07;;;;;;;9.00;1.92;;;;;;;7.22;100.00;100681.31;5051384;28;21114;-75
2022/01/03 04:20:32;;;;;;;22.52;2.35;;;;;;;7.20;100.00;100672.75;5031693;28;20031;-75
2022/01/03 04:22:57;;;;;;;17.05;2.78;;;;;;;7.20;100.00;100667.50;5060258;28;20032;-75
2022/01/03 04:25:23;;;;;;;7.03;1.48;;;;;;;7.17;100.00;100670.41;5048376;28;20405;-75
2022/01/03 04:27:48;;;;;;;20.23;2.53;;;;;;;7.16;100.00;100676.59;5045870;28;20039;-75
2022/01/03 04:30:14;;;;;;;20.38;2.28;;;;;;;7.15;100.00;100678.41;5062891;28;20025;-75
2022/01/03 04:32:39;;;;;;;18.05;2.28;;;;;;;7.00;100.00;100643.81;5066116;28;20073;-76
2022/01/03 04:35:05;;;;;;;13.60;1.92;;;;;;;7.17;100.00;100670.41;5059356;28;20401;-75
2022/01/03 04:37:31;;;;;;;15.05;2.65;;;;;;;7.19;100.00;100674.56;5061707;28;20067;-75
2022/01/03 04:39:56;;;;;;;17.63;3.85;;;;;;;7.08;100.00;100651.03;5041078;28;20060;-75
2022/01/03 04:42:21;;;;;;;14.60;3.22;;;;;;;7.16;100.00;100658.22;5040739;28;20033;-75
2022/01/03 04:44:47;;;;;;;22.60;2.60;;;;;;;7.25;100.00;100657.47;5069370;28;20028;-75
2022/01/03 04:47:12;;;;;;;8.70;2.05;;;;;;;7.33;100.00;100670.72;5046949;28;20502;-75
2022/01/03 04:49:38;;;;;;;17.45;2.28;;;;;;;7.22;100.00;100644.56;5033440;28;20077;-75
2022/01/03 04:52:03;;;;;;;16.02;2.13;;;;;;;7.30;100.00;100655.25;5043792;28;20110;-75
2022/01/03 04:54:29;;;;;;;16.45;3.28;;;;;;;7.22;100.00;100650.66;5060276;28;20456;-75
2022/01/03 04:56:59;;;;;;;14.82;2.55;;;;;;;7.38;100.00;100680.81;5033770;28;20115;-75
2022/01/03 04:59:24;;;;;;;14.50;3.15;;;;;;;7.38;100.00;100671.19;5067080;28;20039;-75
2022/01/03 05:01:50;;;;;;;16.05;3.40;;;;;;;7.35;100.00;100671.44;5060025;28;20404;-75
2022/01/03 05:04:15;;;;;;;18.13;2.97;;;;;;;7.40;100.00;100677.13;5062741;28;20032;-75
2022/01/03 05:06:40;;;;;;;18.02;2.78;;;;;;;7.43;100.00;100681.28;5066594;28;20082;-75
2022/01/03 05:09:06;;;;;;;17.80;2.75;;;;;;;7.40;100.00;100686.78;5066884;28;20020;-75
2022/01/03 05:11:31;;;;;;;11.93;2.50;;;;;;;7.26;100.00;100648.59;5063701;28;20096;-75
2022/01/03 05:13:56;;;;;;;11.50;1.83;;;;;;;7.39;100.00;100691.19;5047014;28;20021;-75
2022/01/03 05:16:22;;;;;;;15.63;2.28;;;;;;;7.34;100.00;100684.69;5064756;28;20090;-75
2022/01/03 05:18:47;;;;;;;19.48;2.55;;;;;;;7.32;100.00;100679.56;5061266;28;20393;-75
2022/01/03 05:21:13;;;;;;;14.52;2.28;;;;;;;7.34;100.00;100676.84;5065204;28;20024;-75
2022/01/03 05:23:39;;;;;;;15.23;2.63;;;;;;;7.37;100.00;100681.81;5043759;28;20040;-75
2022/01/03 05:26:05;;;;;;;12.80;2.08;;;;;;;7.34;100.00;100682.91;5048390;28;20036;-75
2022/01/03 05:28:30;;;;;;;21.92;3.28;;;;;;;7.36;100.00;100680.97;5048913;28;20471;-75
2022/01/03 05:30:57;;;;;;;11.23;2.45;;;;;;;7.33;100.00;100675.97;5066857;28;20024;-75
2022/01/03 05:33:22;;;;;;;20.70;3.22;;;;;;;7.32;100.00;100671.69;5050553;28;20111;-75
2022/01/03 05:35:48;;;;;;;19.73;3.38;;;;;;;7.30;100.00;100673.63;5059865;28;20477;-75
2022/01/03 05:38:13;;;;;;;11.55;3.13;;;;;;;7.18;100.00;100641.38;5062485;28;20032;-75
2022/01/03 05:40:39;;;;;;;18.33;2.92;;;;;;;7.33;100.00;100675.16;5049527;28;20064;-75
2022/01/03 05:43:04;;;;;;;16.20;2.92;;;;;;;7.34;100.00;100661.91;5065058;28;20089;-75
2022/01/03 05:45:29;;;;;;;22.60;2.83;;;;;;;7.40;100.00;100664.00;5065783;28;20044;-75
2022/01/03 05:47:55;;;;;;;12.27;2.40;;;;;;;7.43;100.00;100672.56;5046042;28;20240;-75
2022/01/03 05:50:21;;;;;;;23.08;3.17;;;;;;;7.43;100.00;100673.41;5042008;28;20066;-75
2022/01/03 05:52:46;;;;;;;16.92;2.80;;;;;;;7.40;100.00;100671.88;5062615;28;20056;-75
2022/01/03 05:55:12;;;;;;;22.70;3.58;;;;;;;7.38;100.00;100672.94;5045816;28;20111;-75
2022/01/03 05:57:39;;;;;;;15.10;2.83;;;;;;;7.21;100.00;100646.38;5065806;28;20384;-75
2022/01/03 06:00:07;;;;;;;11.95;1.85;;;;;;;7.33;100.00;100662.03;5053326;28;20028;-75
2022/01/03 06:02:37;;;;;;;21.08;3.50;;;;;;;7.29;100.00;100656.19;5064911;28;20480;-75
2022/01/03 06:05:05;;;;;;;15.52;3.17;;;;;;;7.28;100.00;100657.19;5065643;28;20037;-75
2022/01/03 06:07:31;;;;;;;15.73;3.08;;;;;;;7.24;100.00;100655.78;5069716;28;20039;-75
2022/01/03 06:09:56;;;;;;;14.57;2.08;;;;;;;7.22;100.00;100658.53;5060564;28;20033;-75
2022/01/03 06:12:22;;;;;;;9.48;2.50;;;;;;;7.18;100.00;100645.81;5052176;28;20029;-76
2022/01/03 06:14:48;;;;;;;18.33;2.47;;;;;;;7.25;100.00;100657.47;5062798;28;20032;-76
2022/01/03 06:17:15;;;;;;;15.52;3.00;;;;;;;7.30;100.00;100650.00;5062919;28;20119;-75
2022/01/03 06:19:41;;;;;;;19.67;3.22;;;;;;;7.24;100.00;100642.66;5065553;28;20096;-75
2022/01/03 06:22:08;;;;;;;13.93;2.97;;;;;;;7.33;100.00;100644.47;5050789;28;20124;-75
2022/01/03 06:24:34;;;;;;;16.17;3.28;;;;;;;7.36;100.00;100638.97;5048110;28;20036;-75
2022/01/03 06:26:59;;;;;;;16.00;3.42;;;;;;;7.36;100.00;100633.72;5066522;28;20321;-75
2022/01/03 06:29:25;;;;;;;16.25;3.28;;;;;;;7.39;100.00;100637.88;5048206;28;20024;-75
2022/01/03 06:31:50;;;;;;;17.42;3.10;;;;;;;7.40;100.00;100634.25;5063211;28;20048;-75
2022/01/03 06:34:17;;;;;;;22.15;2.38;;;;;;;7.43;100.00;100633.19;5064464;28;20047;-75
2022/01/03 06:36:43;;;;;;;17.85;2.45;;;;;;;7.35;100.00;100621.53;5063924;28;20025;-75
2022/01/03 06:39:10;;;;;;;16.08;2.72;;;;;;;7.31;100.00;100624.56;5063856;28;20044;-76
2022/01/03 06:41:36;;;;;;;16.75;3.15;;;;;;;7.25;100.00;100620.72;5063817;28;20063;-75
2022/01/03 06:44:02;;;;;;;21.33;4.07;;;;;;;7.32;100.00;100648.06;5068586;28;20107;-75
2022/01/03 06:46:27;;;;;;;17.38;2.65;;;;;;;7.30;100.00;100636.88;5065789;28;20039;-75
2022/01/03 06:48:52;;;;;;;20.35;2.95;;;;;;;7.32;100.00;100628.88;5060239;28;20472;-75
2022/01/03 06:51:18;;;;;;;11.57;3.35;;;;;;;7.33;100.00;100633.16;5066870;28;20101;-75
2022/01/03 06:53:44;;;;;;;9.98;3.30;;;;;;;7.25;100.00;100610.22;5062393;28;20040;-75
2022/01/03 06:56:10;;;;;;;22.13;3.22;;;;;;;7.39;100.00;100622.94;5062073;28;20047;-75
2022/01/03 06:58:37;;;;;;;24.02;3.70;;;;;;;7.49;100.00;100637.88;5065213;28;20041;-74
2022/01/03 07:01:03;;;;;;;12.77;2.47;;;;;;;7.51;100.00;100636.81;5066412;28;20119;-75
2022/01/03 07:03:28;;;;;;;15.80;2.72;;;;;;;7.55;100.00;100637.34;5068333;28;20585;-75
2022/01/03 07:05:54;;;;;;;19.40;3.53;;;;;;;7.40;100.00;100610.63;5047868;28;20082;-75
2022/01/03 07:08:22;;;;;;;19.80;2.65;;;;;;;7.53;100.00;100634.84;5041361;28;20104;-75
2022/01/03 07:10:48;;;;;;;13.57;2.78;;;;;;;7.55;100.00;100632.09;5049529;28;20600;-75
2022/01/03 07:13:14;;;;;;;19.33;2.35;;;;;;;7.53;100.00;100632.22;5045061;28;20033;-75
2022/01/03 07:21:07;;;;;;;22.98;3.05;;;;;;;7.46;100.00;100643.41;5069258;28;20078;-75
2022/01/03 07:23:34;;;;;;;16.00;2.17;;;;;;;7.45;100.00;100644.34;5048988;28;20075;-75
2022/01/03 07:25:59;;;;;;;15.73;2.50;;;;;;;7.51;100.00;100654.31;5068791;28;20063;-75
2022/01/03 07:28:25;;;;;;;17.45;3.13;;;;;;;7.51;100.00;100655.19;5065642;28;20115;-75
2022/01/03 07:30:50;;;;;;;13.32;2.72;;;;;;;7.54;100.00;100657.53;5051100;28;20044;-75
2022/01/03 07:33:16;;;;;;;17.58;3.15;;;;;;;7.55;100.00;100660.97;5043289;28;20043;-75
2022/01/03 07:35:41;;;;;;;18.58;2.75;;;;;;;7.40;100.00;100629.00;5068010;28;20044;-76
2022/01/03 07:38:06;;;;;;;26.40;3.45;;;;;;;7.61;100.00;100657.81;5048467;28;20038;-75
2022/01/03 07:40:32;;;;;;;22.13;2.50;;;;;;;7.60;100.00;100661.41;5050106;28;20473;-75
2022/01/03 07:42:58;;;;;;;15.15;3.47;;;;;;;7.56;100.00;100644.28;5069018;28;20385;-75
2022/01/03 07:45:25;;;;;;;18.95;2.75;;;;;;;7.68;100.00;100663.34;5052386;28;20024;-75
2022/01/03 07:47:50;;;;;;;20.27;2.60;;;;;;;7.69;100.00;100662.41;5042916;28;20524;-75
2022/01/03 07:50:16;;;;;;;29.65;3.95;;;;;;;7.66;100.00;100658.22;5070872;28;20078;-76
2022/01/03 07:52:42;;;;;;;20.42;3.60;;;;;;;7.68;100.00;100647.59;5045809;28;20060;-75
2022/01/03 07:55:09;;;;;;;22.60;2.63;;;;;;;7.64;100.00;100652.28;5044115;28;20209;-75
2022/01/03 07:57:35;;;;;;;18.98;2.97;;;;;;;7.70;100.00;100661.41;5045998;28;20738;-75
2022/01/03 08:00:01;;;;;;;22.05;2.72;;;;;;;7.64;100.00;100665.41;5063330;28;20062;-76
2022/01/03 08:02:28;;;;;;;19.33;3.10;;;;;;;7.66;100.00;100655.59;5062501;28;20045;-75
2022/01/03 08:04:54;;;;;;;15.93;3.40;;;;;;;7.65;100.00;100653.97;5064533;28;20102;-76
2022/01/03 08:07:20;;;;;;;17.48;2.88;;;;;;;7.71;100.00;100665.69;5065008;28;20040;-75
2022/01/03 08:09:45;;;;;;;22.75;2.90;;;;;;;7.69;100.00;100659.78;5058078;28;20133;-75
2022/01/03 08:12:11;;;;;;;18.45;3.50;;;;;;;7.69;100.00;100660.59;5042877;28;20040;-75
2022/01/03 08:14:36;;;;;;;17.23;2.70;;;;;;;7.72;100.00;100660.31;5049441;28;20111;-75
2022/01/03 08:17:01;;;;;;;20.70;3.70;;;;;;;7.74;100.00;100666.28;5064727;28;20270;-75
2022/01/03 08:19:27;;;;;;;14.52;2.10;;;;;;;7.77;100.00;100662.53;5062667;28;20043;-75
2022/01/03 08:21:52;;;;;;;21.08;3.22;;;;;;;7.81;100.00;100674.44;5031270;28;20032;-75
2022/01/03 08:24:18;;;;;;;24.13;3.95;;;;;;;7.81;100.00;100667.38;5046053;28;20166;-75
2022/01/03 08:26:44;;;;;;;22.75;3.85;;;;;;;7.87;100.00;100667.81;5061909;28;20365;-75
2022/01/03 08:29:10;;;;;;;25.15;3.63;;;;;;;7.84;100.00;100650.53;5066007;28;20028;-75
2022/01/03 08:31:37;;;;;;;18.33;3.15;;;;;;;7.80;100.00;100649.97;5063094;28;20043;-75
2022/01/03 08:34:03;;;;;;;17.98;3.47;;;;;;;7.97;100.00;100663.38;5044538;28;20189;-75
2022/01/03 08:36:29;;;;;;;17.52;3.35;;;;;;;7.93;100.00;100656.75;5049613;28;20033;-75
2022/01/03 08:38:54;;;;;;;26.95;4.43;;;;;;;7.76;100.00;100619.69;5063726;28;20043;-75
2022/01/03 08:41:20;;;;;;;18.27;2.95;;;;;;;7.99;100.00;100643.91;5065457;28;20070;-75
2022/01/03 08:43:45;;;;;;;23.98;3.50;;;;;;;8.01;100.00;100659.50;5046891;28;20400;-75
2022/01/03 08:46:11;;;;;;;19.60;3.03;;;;;;;7.94;100.00;100653.16;5064962;28;20534;-75
2022/01/03 08:48:36;;;;;;;24.88;4.85;;;;;;;8.04;100.00;100659.25;5046351;28;20578;-75
2022/01/03 08:51:02;;;;;;;20.92;4.20;;;;;;;7.99;100.00;100650.94;5063958;28;20070;-76
2022/01/03 08:53:27;;;;;;;22.75;4.38;;;;;;;8.01;100.00;100638.47;5065579;28;20048;-76
2022/01/03 08:55:54;;;;;;;12.25;2.65;;;;;;;7.97;100.00;100640.56;5040935;28;20079;-76
2022/01/03 08:58:20;;;;;;;28.67;4.90;;;;;;;8.03;100.00;100671.56;5050009;28;20020;-75
2022/01/03 09:00:45;;;;;;;25.38;4.75;;;;;;;8.10;100.00;100660.47;5037241;28;20245;-75
2022/01/03 09:03:11;;;;;;;23.35;3.55;;;;;;;8.08;100.00;100655.38;5063515;28;20493;-75
2022/01/03 09:05:37;;;;;;;18.00;3.65;;;;;;;8.17;100.00;100658.97;5045775;28;20485;-75
2022/01/03 09:08:03;;;;;;;18.90;3.78;;;;;;;8.18;100.00;100661.44;5062849;28;20042;-75
2022/01/03 09:10:29;;;;;;;19.33;3.53;;;;;;;8.19;100.00;100651.78;5063254;28;20484;-76
2022/01/03 09:12:54;;;;;;;36.75;6.30;;;;;;;8.26;100.00;100646.78;5029347;28;20304;-76
2022/01/03 09:15:20;;;;;;;60.25;14.82;;;;;;;8.29;100.00;100651.75;5025699;28;20111;-75
2022/01/03 09:17:45;;;;;;;32.17;9.13;;;;;;;8.29;100.00;100641.25;5064347;28;20040;-76
2022/01/03 09:20:11;;;;;;;36.90;8.70;;;;;;;8.09;100.00;100614.16;5062163;28;20443;-75
2022/01/03 09:22:42;;;;;;;28.48;7.60;;;;;;;8.31;100.00;100645.38;5029148;28;20042;-75
2022/01/03 09:30:32;;;;;;;49.03;12.18;;;;;;;8.50;100.00;100644.56;5062555;28;20035;-76
2022/01/03 09:32:58;;;;;;;21.02;5.32;;;;;;;8.53;100.00;100639.00;5059824;28;20102;-76
2022/01/03 09:35:23;;;;;;;18.98;5.30;;;;;;;8.54;100.00;100635.44;5061041;28;20571;-76
2022/01/03 09:37:49;;;;;;;28.08;6.30;;;;;;;8.57;100.00;100650.91;5060626;28;20033;-75
2022/01/03 09:40:15;;;;;;;23.20;3.40;;;;;;;8.57;100.00;100639.56;5050090;28;20036;-75
2022/01/03 09:42:43;;;;;;;15.32;2.70;;;;;;;8.60;100.00;100641.91;5061580;28;20524;-75
2022/01/03 09:45:11;;;;;;;19.02;3.28;;;;;;;8.62;100.00;100637.34;5060354;28;20033;-75
2022/01/03 09:47:38;;;;;;;11.05;3.28;;;;;;;8.67;100.00;100644.78;5031174;28;20032;-75
2022/01/03 09:50:06;;;;;;;22.73;6.30;;;;;;;8.70;99.44;100626.09;5064292;28;20028;-76
2022/01/03 09:52:32;;;;;;;23.38;5.97;;;;;;;8.77;99.33;100638.53;5066604;28;20041;-76
2022/01/03 09:54:59;;;;;;;16.02;3.28;;;;;;;8.81;99.64;100649.63;5061763;28;20027;-76
2022/01/03 09:57:28;;;;;;;20.45;4.00;;;;;;;8.77;99.02;100629.81;5063813;28;20029;-76
2022/01/03 09:59:54;;;;;;;22.63;7.15;;;;;;;8.99;99.11;100641.78;5065867;28;20024;-76
2022/01/03 10:02:21;;;;;;;14.80;2.45;;;;;;;9.14;98.58;100634.25;5043202;28;20032;-76
2022/01/03 10:04:48;;;;;;;11.25;2.22;;;;;;;9.71;97.34;100640.16;5041537;28;20036;-76
2022/01/03 10:07:14;;;;;;;21.45;4.13;;;;;;;9.60;95.55;100637.72;5065256;28;20057;-75
2022/01/03 10:09:42;;;;;;;16.05;2.72;;;;;;;9.57;94.40;100646.75;5046244;28;20078;-75
2022/01/03 10:12:13;;;;;;;17.23;2.95;;;;;;;9.44;94.18;100643.66;5048467;28;20039;-76
2022/01/03 10:14:38;;;;;;;18.52;3.20;;;;;;;9.44;94.59;100654.19;5061636;28;20021;-76
2022/01/03 10:17:04;;;;;;;17.67;2.22;;;;;;;9.30;95.84;100633.59;5062293;28;20044;-76
2022/01/03 10:19:29;;;;;;;19.35;3.92;;;;;;;9.27;95.85;100634.72;5062730;28;20023;-76
2022/01/03 10:21:55;;;;;;;14.80;2.88;;;;;;;9.23;95.52;100641.25;5060413;28;20044;-76
2022/01/03 10:24:36;;;;;;;14.68;2.97;;;;;;;9.12;96.32;100615.94;5061007;28;20036;-76
2022/01/03 10:27:03;;;;;;;15.85;3.35;;;;;;;9.27;95.80;100630.28;5064975;28;20037;-76
2022/01/03 10:29:33;;;;;;;15.75;2.60;;;;;;;9.29;97.22;100614.34;5062925;28;20677;-75
2022/01/03 10:32:00;;;;;;;21.60;3.38;;;;;;;9.51;95.96;100638.63;5044276;28;20068;-75
2022/01/03 10:34:27;;;;;;;17.48;2.75;;;;;;;9.62;96.00;100625.22;5065847;28;20083;-75
2022/01/03 10:36:56;;;;;;;21.13;3.05;;;;;;;9.64;94.38;100631.19;5027800;28;20033;-75
2022/01/03 10:39:23;;;;;;;17.15;1.98;;;;;;;9.58;93.93;100635.25;5027772;28;20016;-75
2022/01/03 10:41:54;;;;;;;19.98;3.13;;;;;;;9.50;95.43;100627.25;5064167;28;20035;-75
2022/01/03 10:44:48;;;;;;;14.75;2.45;;;;;;;9.48;94.33;100632.66;5063213;28;20490;-75
2022/01/03 10:47:29;;;;;;;10.57;2.30;;;;;;;9.62;95.32;100614.69;5034039;28;20040;-75
2022/01/03 10:49:55;;;;;;;24.65;3.67;;;;;;;9.62;92.84;100609.44;5045018;28;20020;-74
2022/01/03 10:52:22;;;;;;;22.58;2.90;;;;;;;9.82;93.63;100621.50;5044940;28;20052;-74
2022/01/03 10:55:06;;;;;;;14.52;3.70;;;;;;;9.84;92.43;100622.19;5047000;28;20046;-74
2022/01/03 10:58:07;;;;;;;20.95;3.10;;;;;;;9.92;92.52;100623.22;5065478;28;20415;-74
2022/01/03 11:00:38;;;;;;;16.83;3.38;;;;;;;9.91;92.87;100614.50;5066792;28;20051;-74
2022/01/03 11:03:21;;;;;;;19.30;2.17;;;;;;;9.65;92.32;100603.88;5072562;28;20107;-74
2022/01/03 11:05:55;;;;;;;14.93;3.05;;;;;;;9.70;94.38;100606.88;5066342;28;20055;-74
2022/01/03 11:11:12;;;;;;;13.75;1.92;;;;;;;9.70;93.22;100611.31;5062125;28;20178;-74
2022/01/03 11:13:43;;;;;;;20.70;3.72;;;;;;;9.54;92.88;100591.75;5064295;28;20048;-75
2022/01/03 11:16:10;;;;;;;18.35;3.15;;;;;;;9.55;93.81;100608.38;5062168;28;20028;-75
2022/01/03 11:18:38;;;;;;;21.02;3.13;;;;;;;9.41;93.84;100592.09;5064776;28;20036;-75
2022/01/03 11:21:23;;;;;;;15.75;2.60;;;;;;;9.38;93.95;100608.19;5050713;28;20028;-75
2022/01/03 11:24:02;;;;;;;18.02;2.55;;;;;;;9.38;94.15;100596.84;5073943;28;20055;-75
2022/01/03 11:26:33;;;;;;;10.10;2.60;;;;;;;9.32;94.83;100593.00;5065750;28;20078;-75
2022/01/03 11:29:00;;;;;;;28.02;2.60;;;;;;;9.31;95.29;100593.97;5047963;28;20043;-75
2022/01/03 11:31:32;;;;;;;17.10;2.92;;;;;;;9.28;94.32;100591.63;5065764;28;20382;-75
2022/01/03 11:33:57;;;;;;;16.52;2.58;;;;;;;9.32;94.91;100581.63;5062765;28;20082;-75
2022/01/03 11:36:24;;;;;;;20.13;3.47;;;;;;;9.36;95.55;100589.06;5046278;28;20033;-75